Time;durP1;ratioP1;P1;durP2;ratioP2;P2;SDS_P1;SDS_P2;PMS_P1;PMS_P2;Temp;Humidity;BMP_temperature;BMP_pressure;BME280_temperature;BME280_humidity;BME280_pressure;Samples;Min_cycle;Max_cycle;Signal;HPM_P1;HPM_P2
2022/05/04 00:00:06;;;;;;;;;;;14.80;95.50;15.10;99494.00;;;;343108;28;89760;-90
2022/05/04 00:00:18;;;;;;;;;;;14.80;95.50;15.10;99494.00;;;;343579;28;83245;-90
2022/05/04 00:00:30;;;;;;;;;;;14.80;95.50;15.10;99490.00;;;;343058;28;87595;-90
2022/05/04 00:00:42;;;;;;;;;;;14.80;95.40;15.10;99495.00;;;;343435;28;83680;-90
2022/05/04 00:00:54;;;;;;;;;;;14.80;95.40;15.10;99500.00;;;;341427;28;92131;-89
2022/05/04 00:01:07;;;;;;;;;;;14.80;95.30;15.20;99498.00;;;;344936;28;83221;-90
2022/05/04 00:01:19;;;;;;;;;;;14.80;95.40;15.20;99493.00;;;;344591;28;88946;-90
2022/05/04 00:01:30;;;;;;;;;;;14.80;95.40;15.20;99501.00;;;;342250;28;82531;-90
2022/05/04 00:01:42;;;;;;;;;;;14.80;95.50;15.20;99495.00;;;;341539;28;91106;-90
2022/05/04 00:01:55;;;;;;;;;;;14.80;95.50;15.10;99494.00;;;;340864;28;82519;-90
2022/05/04 00:02:06;;;;;;;;;;;14.80;95.50;15.10;99490.00;;;;340475;28;92287;-90
2022/05/04 00:02:18;;;;;;;;;;;14.80;95.40;15.30;99495.00;;;;343353;28;84394;-90
2022/05/04 00:02:30;;;;;;;;;;;14.80;95.50;15.30;99497.00;;;;342941;28;91771;-90
2022/05/04 00:02:42;;;;;;;;;;;14.80;95.50;15.20;99487.00;;;;343587;28;83293;-90
2022/05/04 00:02:54;;;;;;;;;;;14.80;95.50;15.20;99499.00;;;;344423;28;89546;-89
2022/05/04 00:03:06;;;;;;;;;;;14.80;95.40;15.20;99497.00;;;;343529;28;83315;-89
2022/05/04 00:03:17;;;;;;;;;;;14.80;95.40;15.30;99502.00;;;;341851;28;88240;-90
2022/05/04 00:03:29;;;;;;;;;;;14.80;95.40;15.30;99496.00;;;;343611;28;82413;-89
2022/05/04 00:03:41;;;;;;;;;;;14.80;95.40;15.20;99495.00;;;;341703;28;90112;-90
2022/05/04 00:03:53;;;;;;;;;;;14.80;95.40;15.20;99500.00;;;;343598;28;83293;-90
2022/05/04 00:04:06;;;;;;;;;;;14.80;95.30;15.20;99503.00;;;;345664;28;90633;-90
2022/05/04 00:04:18;;;;;;;;;;;14.80;95.30;15.10;99490.00;;;;343547;28;82493;-90
2022/05/04 00:04:29;;;;;;;;;;;14.80;95.30;15.10;99492.00;;;;344256;28;90268;-90
2022/05/04 00:04:41;;;;;;;;;;;14.90;95.30;15.10;99495.00;;;;344890;28;82425;-90
2022/05/04 00:04:53;;;;;;;;;;;14.80;95.30;15.20;99501.00;;;;341796;28;88497;-90
2022/05/04 00:05:05;;;;;;;;;;;14.80;95.30;15.20;99498.00;;;;342167;28;82248;-89
2022/05/04 00:05:17;;;;;;;;;;;14.80;95.30;15.20;99497.00;;;;341789;28;87914;-90
2022/05/04 00:05:30;;;;;;;;;;;14.80;95.30;15.20;99500.00;;;;344766;28;82536;-90
2022/05/04 00:05:42;;;;;;;;;;;14.80;95.20;15.20;99495.00;;;;342789;28;91790;-90
2022/05/04 00:05:54;;;;;;;;;;;14.80;95.20;15.10;99494.00;;;;343759;28;83169;-89
2022/05/04 00:06:06;;;;;;;;;;;14.80;95.30;15.10;99487.00;;;;344304;28;89509;-88
2022/05/04 00:06:18;;;;;;;;;;;14.80;95.50;15.10;99497.00;;;;346317;28;83760;-90
2022/05/04 00:06:30;;;;;;;;;;;14.90;95.50;15.10;99498.00;;;;344084;28;92419;-89
2022/05/04 00:06:42;;;;;;;;;;;14.80;95.60;15.10;99500.00;;;;344921;28;83492;-89
2022/05/04 00:06:54;;;;;;;;;;;14.80;95.60;14.90;99498.00;;;;343009;28;88952;-88
2022/05/04 00:07:05;;;;;;;;;;;14.80;95.60;14.90;99492.00;;;;342091;28;83467;-90
2022/05/04 00:07:17;;;;;;;;;;;14.80;95.90;15.00;99494.00;;;;343213;28;89365;-90
2022/05/04 00:07:29;;;;;;;;;;;14.80;95.60;15.00;99504.00;;;;344899;28;82311;-90
2022/05/04 00:07:41;;;;;;;;;;;14.80;95.60;15.00;99498.00;;;;345513;28;90874;-90
2022/05/04 00:07:53;;;;;;;;;;;14.80;95.60;14.90;99494.00;;;;344873;28;83489;-90
2022/05/04 00:08:05;;;;;;;;;;;14.80;95.60;14.90;99494.00;;;;344473;28;89505;-90
2022/05/04 00:08:17;;;;;;;;;;;14.80;95.60;14.80;99499.00;;;;344666;28;82323;-89
2022/05/04 00:08:29;;;;;;;;;;;14.80;95.70;14.80;99502.00;;;;343948;28;90607;-90
2022/05/04 00:08:41;;;;;;;;;;;14.70;95.70;14.80;99504.00;;;;343591;28;83249;-90
2022/05/04 00:08:53;;;;;;;;;;;14.70;95.70;14.90;99496.00;;;;341975;28;88240;-90
2022/05/04 00:09:05;;;;;;;;;;;14.70;95.70;14.80;99500.00;;;;343530;28;83165;-90
2022/05/04 00:09:17;;;;;;;;;;;14.70;95.70;14.90;99505.00;;;;343145;28;87754;-90
2022/05/04 00:09:28;;;;;;;;;;;14.70;95.70;14.90;99500.00;;;;344884;28;83137;-90
2022/05/04 00:09:40;;;;;;;;;;;14.70;95.70;14.90;99507.00;;;;343085;28;89232;-90
2022/05/04 00:09:52;;;;;;;;;;;14.70;95.80;14.80;99506.00;;;;342109;28;83367;-89
2022/05/04 00:10:05;;;;;;;;;;;14.70;95.80;14.70;99502.00;;;;343096;28;89379;-90
2022/05/04 00:10:17;;;;;;;;;;;14.70;95.70;14.70;99494.00;;;;342139;28;83358;-90
2022/05/04 00:10:30;;;;;;;;;;;14.60;95.80;14.70;99502.00;;;;344484;28;88124;-90
2022/05/04 00:10:42;;;;;;;;;;;14.70;95.80;14.70;99495.00;;;;344999;28;83261;-90
2022/05/04 00:10:54;;;;;;;;;;;14.60;95.80;14.70;99503.00;;;;344096;28;90684;-88
2022/05/04 00:11:06;;;;;;;;;;;14.60;95.80;14.80;99504.00;;;;343205;28;83457;-89
2022/05/04 00:11:18;;;;;;;;;;;14.60;95.90;14.70;99499.00;;;;341757;28;89520;-89
2022/05/04 00:11:29;;;;;;;;;;;14.60;95.90;14.70;99501.00;;;;344753;28;82644;-89
2022/05/04 00:11:42;;;;;;;;;;;14.60;96.00;14.60;99499.00;;;;342709;28;91701;-89
2022/05/04 00:11:54;;;;;;;;;;;14.60;95.90;14.60;99500.00;;;;342159;28;82217;-90
2022/05/04 00:12:06;;;;;;;;;;;14.60;95.90;14.70;99500.00;;;;342976;28;91035;-90
2022/05/04 00:12:18;;;;;;;;;;;14.60;95.90;14.80;99504.00;;;;343137;28;84282;-90
2022/05/04 00:12:30;;;;;;;;;;;14.60;96.00;14.90;99504.00;;;;343045;28;89680;-89
2022/05/04 00:12:42;;;;;;;;;;;14.60;95.90;15.00;99503.00;;;;341874;28;83292;-90
2022/05/04 00:12:54;;;;;;;;;;;14.60;95.90;14.90;99503.00;;;;341718;28;91384;-89
2022/05/04 00:13:05;;;;;;;;;;;14.60;95.90;14.80;99505.00;;;;343604;28;83314;-90
2022/05/04 00:13:17;;;;;;;;;;;14.60;95.80;14.80;99509.00;;;;341571;28;89273;-89
2022/05/04 00:13:29;;;;;;;;;;;14.60;95.90;14.80;99502.00;;;;342158;28;83270;-90
2022/05/04 00:13:41;;;;;;;;;;;14.60;95.90;14.80;99500.00;;;;342929;28;89400;-90
2022/05/04 00:13:53;;;;;;;;;;;14.60;96.00;14.80;99506.00;;;;343319;28;83684;-90
2022/05/04 00:14:05;;;;;;;;;;;14.60;96.00;14.70;99503.00;;;;344167;28;91555;-90
2022/05/04 00:14:17;;;;;;;;;;;14.60;96.10;14.70;99498.00;;;;344829;28;84275;-89
2022/05/04 00:14:29;;;;;;;;;;;14.60;96.10;14.70;99503.00;;;;344259;28;91591;-89
2022/05/04 00:14:41;;;;;;;;;;;14.60;96.10;14.60;99498.00;;;;346332;28;83240;-89
2022/05/04 00:14:53;;;;;;;;;;;14.60;96.10;14.70;99509.00;;;;343154;28;88082;-90
2022/05/04 00:15:05;;;;;;;;;;;14.60;96.10;14.70;99502.00;;;;343386;28;83329;-89
2022/05/04 00:15:17;;;;;;;;;;;14.60;96.10;14.70;99502.00;;;;344230;28;90476;-89
2022/05/04 00:15:29;;;;;;;;;;;14.60;96.10;14.80;99499.00;;;;343653;28;82161;-89
2022/05/04 00:15:41;;;;;;;;;;;14.50;96.10;14.70;99503.00;;;;342836;28;93121;-90
2022/05/04 00:15:53;;;;;;;;;;;14.60;96.10;14.80;99508.00;;;;342161;28;83316;-89
2022/05/04 00:16:06;;;;;;;;;;;14.50;96.00;14.90;99502.00;;;;342984;28;91793;-90
2022/05/04 00:16:18;;;;;;;;;;;14.60;96.00;14.80;99503.00;;;;346001;28;83601;-90
2022/05/04 00:16:30;;;;;;;;;;;14.60;96.00;14.90;99503.00;;;;345821;28;89210;-90
2022/05/04 00:16:42;;;;;;;;;;;14.60;96.00;15.00;99502.00;;;;343612;28;82227;-90
2022/05/04 00:16:53;;;;;;;;;;;14.60;96.00;15.00;99505.00;;;;342989;28;89289;-88
2022/05/04 00:17:05;;;;;;;;;;;14.60;96.00;14.90;99502.00;;;;344797;28;82447;-90
2022/05/04 00:17:17;;;;;;;;;;;14.50;96.00;14.90;99507.00;;;;344363;28;89039;-89
2022/05/04 00:17:30;;;;;;;;;;;14.60;96.10;14.80;99504.00;;;;344645;28;82478;-89
2022/05/04 00:17:41;;;;;;;;;;;14.60;96.00;14.90;99515.00;;;;342951;28;90562;-90
2022/05/04 00:17:53;;;;;;;;;;;14.60;96.10;14.90;99506.00;;;;344624;28;82663;-89
2022/05/04 00:18:05;;;;;;;;;;;14.60;96.10;15.00;99505.00;;;;344455;28;88559;-90
2022/05/04 00:18:17;;;;;;;;;;;14.60;96.00;15.00;99504.00;;;;343435;28;83389;-89
2022/05/04 00:18:29;;;;;;;;;;;14.60;96.00;15.00;99497.00;;;;344201;28;90537;-90
2022/05/04 00:18:41;;;;;;;;;;;14.60;95.90;14.90;99510.00;;;;344691;28;83498;-89
2022/05/04 00:18:53;;;;;;;;;;;14.60;95.90;14.90;99502.00;;;;342939;28;88999;-89
2022/05/04 00:19:04;;;;;;;;;;;14.60;95.90;14.80;99498.00;;;;343222;28;83511;-89
2022/05/04 00:19:16;;;;;;;;;;;14.60;96.00;14.90;99503.00;;;;341544;28;91263;-89
2022/05/04 00:19:28;;;;;;;;;;;14.60;95.90;14.90;99504.00;;;;341991;28;83394;-89
2022/05/04 00:19:40;;;;;;;;;;;14.60;96.00;14.90;99500.00;;;;340326;28;90364;-90
2022/05/04 00:19:52;;;;;;;;;;;14.60;96.00;15.00;99494.00;;;;343291;28;82412;-89
2022/05/04 00:20:05;;;;;;;;;;;14.60;95.90;15.00;99500.00;;;;343058;28;89083;-90
2022/05/04 00:20:17;;;;;;;;;;;14.60;95.90;14.90;99498.00;;;;340751;28;83474;-90
2022/05/04 00:20:29;;;;;;;;;;;14.60;96.00;14.80;99504.00;;;;341688;28;88594;-90
2022/05/04 00:20:41;;;;;;;;;;;14.60;96.10;14.80;99502.00;;;;340830;28;83248;-90
2022/05/04 00:20:52;;;;;;;;;;;14.60;96.00;14.90;99499.00;;;;340504;28;87758;-89
2022/05/04 00:21:07;;;;;;;;;;;14.60;96.00;14.90;99500.00;;;;340654;28;82470;-90
2022/05/04 00:21:19;;;;;;;;;;;14.60;96.00;14.90;99501.00;;;;343030;28;90001;-89
2022/05/04 00:21:30;;;;;;;;;;;14.60;96.10;15.00;99496.00;;;;343256;28;82385;-89
2022/05/04 00:21:42;;;;;;;;;;;14.60;96.00;15.00;99498.00;;;;344006;28;91779;-89
2022/05/04 00:21:54;;;;;;;;;;;14.60;96.10;15.00;99498.00;;;;344627;28;82502;-90
2022/05/04 00:22:06;;;;;;;;;;;14.60;96.00;15.00;99493.00;;;;342866;28;91622;-89
2022/05/04 00:22:18;;;;;;;;;;;14.60;96.00;15.00;99488.00;;;;343452;28;82409;-90
2022/05/04 00:22:30;;;;;;;;;;;14.60;96.00;15.10;99495.00;;;;345883;28;88907;-90
2022/05/04 00:22:43;;;;;;;;;;;14.60;96.00;15.10;99495.00;;;;344741;28;82511;-90
2022/05/04 00:22:55;;;;;;;;;;;14.60;96.10;15.10;99500.00;;;;345432;28;90437;-89
2022/05/04 00:23:07;;;;;;;;;;;14.60;96.00;15.20;99489.00;;;;346337;28;83060;-90
2022/05/04 00:23:19;;;;;;;;;;;14.60;96.00;15.20;99491.00;;;;345834;28;89217;-90
2022/05/04 00:23:30;;;;;;;;;;;14.70;96.00;15.20;99493.00;;;;344616;28;83362;-89
2022/05/04 00:23:42;;;;;;;;;;;14.70;96.20;15.20;99491.00;;;;344029;28;92189;-90
2022/05/04 00:23:54;;;;;;;;;;;14.70;95.90;15.20;99501.00;;;;344966;28;82298;-89
2022/05/04 00:24:06;;;;;;;;;;;14.70;95.90;15.10;99487.00;;;;345757;28;89432;-90
2022/05/04 00:24:20;;;;;;;;;;;14.70;95.90;15.10;99491.00;;;;341929;28;82566;-90
2022/05/04 00:24:31;;;;;;;;;;;14.70;95.80;15.00;99486.00;;;;343163;28;88467;-90
2022/05/04 00:24:43;;;;;;;;;;;14.70;95.80;15.00;99491.00;;;;343532;28;83418;-89
2022/05/04 00:24:55;;;;;;;;;;;14.70;95.80;15.00;99494.00;;;;343126;28;88889;-88
2022/05/04 00:25:07;;;;;;;;;;;14.70;95.80;14.90;99489.00;;;;344630;28;82587;-90
2022/05/04 00:25:19;;;;;;;;;;;14.70;95.90;14.90;99489.00;;;;343236;28;89219;-90
2022/05/04 00:25:30;;;;;;;;;;;14.70;96.20;14.90;99494.00;;;;343627;28;82284;-90
2022/05/04 00:25:42;;;;;;;;;;;14.60;95.90;14.90;99498.00;;;;342945;28;90052;-91
2022/05/04 00:25:54;;;;;;;;;;;14.70;95.90;15.00;99495.00;;;;343500;28;82169;-89
2022/05/04 00:26:06;;;;;;;;;;;14.60;95.80;15.10;99496.00;;;;341459;28;90369;-90
2022/05/04 00:26:18;;;;;;;;;;;14.60;95.80;15.10;99495.00;;;;340691;28;83331;-89
2022/05/04 00:26:29;;;;;;;;;;;14.70;95.80;15.10;99490.00;;;;343323;28;89480;-90
2022/05/04 00:26:41;;;;;;;;;;;14.70;95.80;15.00;99485.00;;;;344692;28;82613;-90
2022/05/04 00:26:54;;;;;;;;;;;14.70;95.90;15.10;99492.00;;;;344212;28;91373;-89
2022/05/04 00:27:06;;;;;;;;;;;14.70;95.90;15.20;99493.00;;;;344610;28;83604;-89
2022/05/04 00:27:18;;;;;;;;;;;14.60;95.90;15.10;99489.00;;;;343186;28;89068;-90
2022/05/04 00:27:29;;;;;;;;;;;14.70;95.90;15.10;99488.00;;;;342038;28;82473;-90
2022/05/04 00:27:41;;;;;;;;;;;14.70;95.80;15.10;99487.00;;;;344317;28;88999;-89
2022/05/04 00:27:53;;;;;;;;;;;14.70;95.80;15.10;99490.00;;;;343554;28;82239;-90
2022/05/04 00:28:05;;;;;;;;;;;14.70;95.80;15.10;99494.00;;;;343196;28;88648;-90
2022/05/04 00:28:17;;;;;;;;;;;14.70;95.80;15.00;99494.00;;;;345877;28;83402;-89
2022/05/04 00:28:29;;;;;;;;;;;14.70;95.80;15.10;99493.00;;;;344150;28;89928;-89
2022/05/04 00:28:40;;;;;;;;;;;14.70;95.80;15.10;99490.00;;;;343525;28;83216;-89
2022/05/04 00:28:52;;;;;;;;;;;14.70;95.80;15.10;99494.00;;;;343035;28;89650;-90
2022/05/04 00:29:04;;;;;;;;;;;14.70;95.80;15.10;99495.00;;;;342127;28;83430;-90
2022/05/04 00:29:16;;;;;;;;;;;14.70;95.90;15.20;99490.00;;;;341792;28;87678;-89
2022/05/04 00:29:28;;;;;;;;;;;14.70;95.90;15.20;99487.00;;;;344581;28;83361;-90
2022/05/04 00:29:40;;;;;;;;;;;14.70;95.90;15.20;99495.00;;;;341467;28;92644;-89
2022/05/04 00:29:51;;;;;;;;;;;14.70;96.00;15.20;99485.00;;;;343592;28;82201;-90
2022/05/04 00:30:05;;;;;;;;;;;14.70;95.90;15.20;99493.00;;;;344658;28;89500;-90
2022/05/04 00:30:17;;;;;;;;;;;14.70;95.90;15.10;99491.00;;;;344069;28;82407;-90
2022/05/04 00:30:29;;;;;;;;;;;14.70;95.80;15.10;99491.00;;;;342976;28;87960;-89
2022/05/04 00:30:41;;;;;;;;;;;14.70;95.80;15.10;99488.00;;;;343837;28;83473;-90
2022/05/04 00:30:52;;;;;;;;;;;14.70;95.70;15.10;99491.00;;;;343672;28;89433;-90
2022/05/04 00:31:04;;;;;;;;;;;14.70;95.70;15.10;99488.00;;;;345528;28;83491;-90
2022/05/04 00:31:16;;;;;;;;;;;14.70;95.90;15.00;99493.00;;;;343304;28;91644;-91
2022/05/04 00:31:28;;;;;;;;;;;14.70;95.70;14.90;99497.00;;;;345274;28;82529;-89
2022/05/04 00:31:40;;;;;;;;;;;14.70;95.80;14.90;99496.00;;;;343489;28;90119;-89
2022/05/04 00:31:52;;;;;;;;;;;14.70;95.80;14.80;99493.00;;;;345544;28;83578;-89
2022/05/04 00:32:04;;;;;;;;;;;14.70;95.90;14.90;99493.00;;;;344557;28;92359;-89
2022/05/04 00:32:19;;;;;;;;;;;14.70;95.90;14.90;99494.00;;;;343780;28;82409;-90
2022/05/04 00:32:31;;;;;;;;;;;14.70;95.80;14.90;99497.00;;;;343182;28;88584;-90
2022/05/04 00:32:45;;;;;;;;;;;14.70;95.90;14.90;99501.00;;;;345188;28;82591;-90
2022/05/04 00:32:59;;;;;;;;;;;14.70;95.90;14.80;99498.00;;;;344419;28;91330;-89
2022/05/04 00:33:11;;;;;;;;;;;14.70;96.00;14.80;99497.00;;;;343993;28;83384;-90
2022/05/04 00:33:23;;;;;;;;;;;14.70;96.00;14.90;99491.00;;;;343493;28;91398;-90
2022/05/04 00:33:35;;;;;;;;;;;14.70;95.90;14.90;99501.00;;;;344167;28;83165;-88
2022/05/04 00:33:46;;;;;;;;;;;14.70;95.90;14.90;99491.00;;;;342274;28;90656;-89
2022/05/04 00:33:58;;;;;;;;;;;14.70;96.00;15.00;99499.00;;;;345374;28;82654;-89
2022/05/04 00:34:10;;;;;;;;;;;14.60;95.90;15.00;99499.00;;;;344842;28;92264;-90
2022/05/04 00:34:22;;;;;;;;;;;14.60;96.00;14.80;99499.00;;;;342589;28;82623;-89
2022/05/04 00:34:34;;;;;;;;;;;14.60;96.10;14.70;99497.00;;;;343306;28;89310;-90
2022/05/04 00:34:47;;;;;;;;;;;14.60;96.10;14.60;99498.00;;;;342170;28;83119;-89
2022/05/04 00:34:59;;;;;;;;;;;14.60;96.10;14.60;99492.00;;;;342986;28;89303;-90
2022/05/04 00:35:11;;;;;;;;;;;14.60;96.10;14.60;99491.00;;;;344636;28;82462;-90
2022/05/04 00:35:23;;;;;;;;;;;14.60;96.10;14.60;99491.00;;;;343289;28;87858;-89
2022/05/04 00:35:35;;;;;;;;;;;14.60;96.10;14.60;99491.00;;;;345892;28;82341;-89
2022/05/04 00:35:47;;;;;;;;;;;14.50;96.10;14.60;99491.00;;;;344188;28;91735;-90
2022/05/04 00:35:58;;;;;;;;;;;14.50;96.10;14.60;99489.00;;;;345060;28;83477;-90
2022/05/04 00:36:10;;;;;;;;;;;14.50;96.10;14.60;99486.00;;;;344418;28;90527;-89
2022/05/04 00:36:22;;;;;;;;;;;14.50;96.10;14.60;99492.00;;;;343450;28;83439;-90
2022/05/04 00:36:34;;;;;;;;;;;14.50;96.20;14.70;99488.00;;;;341806;28;89175;-89
2022/05/04 00:36:45;;;;;;;;;;;14.50;96.20;14.60;99489.00;;;;342213;28;82473;-89
2022/05/04 00:37:01;;;;;;;;;;;14.50;96.20;14.60;99498.00;;;;343067;28;88324;-89
2022/05/04 00:37:13;;;;;;;;;;;14.50;96.20;14.60;99491.00;;;;342241;28;82402;-89
2022/05/04 00:37:25;;;;;;;;;;;14.50;96.20;14.60;99498.00;;;;341809;28;87995;-89
2022/05/04 00:37:37;;;;;;;;;;;14.50;96.30;14.60;99497.00;;;;343479;28;82437;-90
2022/05/04 00:37:49;;;;;;;;;;;14.40;96.30;14.60;99498.00;;;;341571;28;90076;-90
2022/05/04 00:38:01;;;;;;;;;;;14.50;96.30;14.60;99495.00;;;;343577;28;82346;-89
2022/05/04 00:38:12;;;;;;;;;;;14.40;96.40;14.60;99499.00;;;;341713;28;89420;-90
2022/05/04 00:38:24;;;;;;;;;;;14.40;96.40;14.60;99492.00;;;;345458;28;83583;-89
2022/05/04 00:38:37;;;;;;;;;;;14.40;96.50;14.60;99502.00;;;;342656;28;88231;-90
2022/05/04 00:38:48;;;;;;;;;;;14.40;96.50;14.50;99493.00;;;;346362;28;83232;-90
2022/05/04 00:39:00;;;;;;;;;;;14.40;96.50;14.60;99500.00;;;;342898;28;89170;-91
2022/05/04 00:39:12;;;;;;;;;;;14.40;96.50;14.60;99498.00;;;;346015;28;83385;-90
2022/05/04 00:39:24;;;;;;;;;;;14.40;96.40;14.60;99497.00;;;;344357;28;89388;-90
2022/05/04 00:39:36;;;;;;;;;;;14.40;96.50;14.60;99494.00;;;;344851;28;83345;-89
2022/05/04 00:39:47;;;;;;;;;;;14.40;96.50;14.60;99493.00;;;;345751;28;91426;-90
2022/05/04 00:40:00;;;;;;;;;;;14.40;96.40;14.70;99497.00;;;;346333;28;83268;-90
2022/05/04 00:40:12;;;;;;;;;;;14.40;96.50;14.50;99485.00;;;;342868;28;90580;-89
2022/05/04 00:40:24;;;;;;;;;;;14.40;96.60;14.60;99498.00;;;;344720;28;83805;-90
2022/05/04 00:40:35;;;;;;;;;;;14.40;96.60;14.70;99491.00;;;;345819;28;89430;-90
2022/05/04 00:40:47;;;;;;;;;;;14.40;96.50;14.70;99497.00;;;;341450;28;83438;-90
2022/05/04 00:40:59;;;;;;;;;;;14.30;96.40;14.80;99501.00;;;;344436;28;87516;-89
2022/05/04 00:41:11;;;;;;;;;;;14.40;96.40;14.90;99494.00;;;;343465;28;83280;-90
2022/05/04 00:41:23;;;;;;;;;;;14.40;96.40;14.90;99498.00;;;;343535;28;89105;-90
2022/05/04 00:41:34;;;;;;;;;;;14.40;96.40;14.90;99505.00;;;;344836;28;83179;-89
2022/05/04 00:41:46;;;;;;;;;;;14.40;96.50;15.00;99502.00;;;;342659;28;90646;-90
2022/05/04 00:42:10;;;;;;;;;;;14.40;96.50;15.00;99505.00;;;;346193;28;82443;-89
2022/05/04 00:42:22;;;;;;;;;;;14.40;96.50;15.00;99497.00;;;;344458;28;87846;-90
2022/05/04 00:42:34;;;;;;;;;;;14.40;96.50;15.00;99504.00;;;;343569;28;83121;-90
2022/05/04 00:42:45;;;;;;;;;;;14.50;96.50;15.00;99499.00;;;;342749;28;91243;-90
2022/05/04 00:42:57;;;;;;;;;;;14.50;96.40;14.90;99500.00;;;;343489;28;83132;-90
2022/05/04 00:43:20;;;;;;;;;;;14.50;96.40;15.00;99504.00;;;;344218;28;92067;-90
2022/05/04 00:43:32;;;;;;;;;;;14.50;96.40;15.00;99507.00;;;;343337;28;83422;-90
2022/05/04 00:43:50;;;;;;;;;;;14.50;96.60;15.10;99493.00;;;;344362;28;89219;-90
2022/05/04 00:44:02;;;;;;;;;;;14.50;96.40;14.90;99497.00;;;;343525;28;83208;-89
2022/05/04 00:44:15;;;;;;;;;;;14.50;96.40;14.80;99500.00;;;;343083;28;88771;-88
2022/05/04 00:44:27;;;;;;;;;;;14.50;96.50;14.90;99507.00;;;;344213;28;88144;-90
2022/05/04 00:44:39;;;;;;;;;;;14.50;96.40;14.90;99496.00;;;;345570;28;89495;-90
2022/05/04 00:44:51;;;;;;;;;;;14.50;96.40;15.00;99498.00;;;;344804;28;83441;-89
2022/05/04 00:45:03;;;;;;;;;;;14.50;96.70;15.00;99511.00;;;;344074;28;92086;-89
2022/05/04 00:45:15;;;;;;;;;;;14.50;96.40;15.00;99488.00;;;;343453;28;83394;-90
2022/05/04 00:45:26;;;;;;;;;;;14.50;96.40;15.00;99491.00;;;;342861;28;90338;-89
2022/05/04 00:45:38;;;;;;;;;;;14.50;96.30;14.90;99492.00;;;;342159;28;82406;-89
2022/05/04 00:45:50;;;;;;;;;;;14.50;96.30;14.80;99494.00;;;;344157;28;91006;-89
2022/05/04 00:46:03;;;;;;;;;;;14.50;96.40;14.70;99503.00;;;;341878;28;82602;-90
2022/05/04 00:46:14;;;;;;;;;;;14.50;96.40;14.70;99498.00;;;;341630;28;88842;-89
2022/05/04 00:46:26;;;;;;;;;;;14.50;96.40;14.60;99485.00;;;;343480;28;83367;-89
2022/05/04 00:46:38;;;;;;;;;;;14.50;96.40;14.60;99487.00;;;;343064;28;88388;-90
2022/05/04 00:46:50;;;;;;;;;;;14.50;96.40;14.70;99500.00;;;;343413;28;83536;-89
2022/05/04 00:47:03;;;;;;;;;;;14.50;96.40;14.70;99492.00;;;;344041;28;89768;-89
2022/05/04 00:47:15;;;;;;;;;;;14.50;96.40;14.60;99491.00;;;;343488;28;83276;-90
2022/05/04 00:47:26;;;;;;;;;;;14.50;96.40;14.70;99492.00;;;;344356;28;89389;-89
2022/05/04 00:47:38;;;;;;;;;;;14.50;96.70;14.60;99498.00;;;;346814;28;84293;-90
2022/05/04 00:47:50;;;;;;;;;;;14.40;96.40;14.50;99498.00;;;;345763;28;89439;-89
2022/05/04 00:48:02;;;;;;;;;;;14.40;96.50;14.50;99495.00;;;;344631;28;83529;-90
2022/05/04 00:48:15;;;;;;;;;;;14.40;96.60;14.50;99503.00;;;;346676;28;91840;-88
2022/05/04 00:48:26;;;;;;;;;;;14.40;96.60;14.40;99500.00;;;;346237;28;83307;-89
2022/05/04 00:48:38;;;;;;;;;;;14.40;96.60;14.40;99490.00;;;;347116;28;92517;-89
2022/05/04 00:48:50;;;;;;;;;;;14.40;96.60;14.40;99498.00;;;;346010;28;82344;-89
2022/05/04 00:49:02;;;;;;;;;;;14.40;96.70;14.40;99497.00;;;;344319;28;88400;-90
2022/05/04 00:49:14;;;;;;;;;;;14.40;96.70;14.40;99491.00;;;;346273;28;83376;-89
2022/05/04 00:49:26;;;;;;;;;;;14.40;96.80;14.40;99494.00;;;;343083;28;89370;-89
2022/05/04 00:49:39;;;;;;;;;;;14.40;96.80;14.40;99500.00;;;;341823;28;83407;-89
2022/05/04 00:49:51;;;;;;;;;;;14.30;96.80;14.40;99498.00;;;;342948;28;92074;-89
2022/05/04 00:50:04;;;;;;;;;;;14.30;96.80;14.30;99497.00;;;;344625;28;83503;-89
2022/05/04 00:50:16;;;;;;;;;;;14.30;96.80;14.40;99498.00;;;;345581;28;90053;-90
2022/05/04 00:50:28;;;;;;;;;;;14.30;96.90;14.40;99501.00;;;;341880;28;82527;-89
2022/05/04 00:50:40;;;;;;;;;;;14.30;96.80;14.30;99499.00;;;;344423;28;88742;-90
2022/05/04 00:50:52;;;;;;;;;;;14.30;96.90;14.30;99508.00;;;;344620;28;83387;-89
2022/05/04 00:51:04;;;;;;;;;;;14.30;96.90;14.30;99502.00;;;;342938;28;89061;-90
2022/05/04 00:51:16;;;;;;;;;;;14.30;96.90;14.30;99499.00;;;;343519;28;83425;-89
2022/05/04 00:51:27;;;;;;;;;;;14.30;96.90;14.40;99495.00;;;;343430;28;91465;-90
2022/05/04 00:51:39;;;;;;;;;;;14.20;96.90;14.40;99504.00;;;;343227;28;83533;-90
2022/05/04 00:51:51;;;;;;;;;;;14.20;96.80;14.40;99504.00;;;;344482;28;88066;-89
2022/05/04 00:52:03;;;;;;;;;;;14.20;96.90;14.40;99499.00;;;;344859;28;83139;-90
2022/05/04 00:52:16;;;;;;;;;;;14.20;96.90;14.40;99498.00;;;;343058;28;88515;-89
2022/05/04 00:52:28;;;;;;;;;;;14.20;96.90;14.40;99506.00;;;;343351;28;83316;-90
2022/05/04 00:52:42;;;;;;;;;;;14.20;96.90;14.40;99506.00;;;;341685;28;89037;-90
2022/05/04 00:52:53;;;;;;;;;;;14.20;96.90;14.30;99502.00;;;;345923;28;83555;-89
2022/05/04 00:53:05;;;;;;;;;;;14.20;96.90;14.40;99501.00;;;;344435;28;88968;-90
2022/05/04 00:53:20;;;;;;;;;;;14.20;96.80;14.40;99500.00;;;;343508;28;83330;-89
2022/05/04 00:53:31;;;;;;;;;;;14.20;96.70;14.50;99501.00;;;;343061;28;89502;-90
2022/05/04 00:53:44;;;;;;;;;;;14.20;96.70;14.50;99493.00;;;;340754;28;83421;-90
2022/05/04 00:53:55;;;;;;;;;;;14.20;96.70;14.60;99497.00;;;;342939;28;89604;-90
2022/05/04 00:54:07;;;;;;;;;;;14.20;96.70;14.60;99495.00;;;;344897;28;82484;-90
2022/05/04 00:54:19;;;;;;;;;;;14.20;96.80;14.50;99499.00;;;;342952;28;89269;-89
2022/05/04 00:54:31;;;;;;;;;;;14.20;96.90;14.50;99500.00;;;;343508;28;82275;-90
2022/05/04 00:54:49;;;;;;;;;;;14.20;97.00;14.50;99504.00;;;;344380;28;89504;-90
2022/05/04 00:55:02;;;;;;;;;;;14.20;97.00;14.50;99499.00;;;;343431;28;82451;-90
2022/05/04 00:55:16;;;;;;;;;;;14.20;97.00;14.50;99500.00;;;;341452;28;91753;-90
2022/05/04 00:55:28;;;;;;;;;;;14.20;97.00;14.40;99498.00;;;;344604;28;83263;-90
2022/05/04 00:55:40;;;;;;;;;;;14.20;96.90;14.50;99505.00;;;;345452;28;91742;-89
2022/05/04 00:55:52;;;;;;;;;;;14.20;96.90;14.50;99496.00;;;;344763;28;82512;-89
2022/05/04 00:56:04;;;;;;;;;;;14.20;96.80;14.50;99503.00;;;;342953;28;91605;-90
2022/05/04 00:56:16;;;;;;;;;;;14.20;96.80;14.50;99502.00;;;;343435;28;82331;-89
2022/05/04 00:56:28;;;;;;;;;;;14.20;96.70;14.50;99499.00;;;;342204;28;90374;-90
2022/05/04 00:56:39;;;;;;;;;;;14.20;96.70;14.50;99490.00;;;;341943;28;82419;-90
2022/05/04 00:56:51;;;;;;;;;;;14.10;96.70;14.50;99498.00;;;;344414;28;88049;-89
2022/05/04 00:57:04;;;;;;;;;;;14.20;96.80;14.50;99505.00;;;;344814;28;82573;-90
2022/05/04 00:57:17;;;;;;;;;;;14.20;96.80;14.50;99498.00;;;;341689;28;89460;-90
2022/05/04 00:59:01;;;;;;;;;;;14.20;97.10;14.50;99501.00;;;;342786;28;89565;-89
2022/05/04 00:59:13;;;;;;;;;;;14.20;97.00;14.50;99494.00;;;;342164;28;83242;-89
2022/05/04 00:59:25;;;;;;;;;;;14.20;96.90;14.50;99493.00;;;;343531;28;90217;-89
2022/05/04 00:59:37;;;;;;;;;;;14.20;96.90;14.50;99497.00;;;;343186;28;83320;-89
2022/05/04 00:59:49;;;;;;;;;;;14.20;96.90;14.50;99496.00;;;;342962;28;88333;-89
2022/05/04 01:00:02;;;;;;;;;;;14.20;97.00;14.50;99492.00;;;;346048;28;83495;-89
2022/05/04 01:00:15;;;;;;;;;;;14.20;97.10;14.40;99501.00;;;;342822;28;91180;-89
2022/05/04 01:00:27;;;;;;;;;;;14.20;97.00;14.60;99499.00;;;;343469;28;82445;-89
2022/05/04 01:00:39;;;;;;;;;;;14.20;97.00;14.60;99497.00;;;;341756;28;87785;-89
2022/05/04 01:00:51;;;;;;;;;;;14.20;97.00;14.60;99489.00;;;;341826;28;83285;-90
2022/05/04 01:01:03;;;;;;;;;;;14.20;97.00;14.60;99488.00;;;;341320;28;92625;-90
2022/05/04 01:01:17;;;;;;;;;;;14.20;97.00;14.50;99496.00;;;;344724;28;83204;-89
2022/05/04 01:01:30;;;;;;;;;;;14.20;97.10;14.50;99495.00;;;;344175;28;88476;-90
2022/05/04 01:01:42;;;;;;;;;;;14.10;97.00;14.60;99501.00;;;;344496;28;83594;-89